sensor_id;sensor_type;location;lat;lon;timestamp;P1;durP1;ratioP1;P2;durP2;ratioP2
44270;SDS011;29963;44.594;11.368;2023-09-19T00:00:36;15.07;;;4.65;;
44270;SDS011;29963;44.594;11.368;2023-09-19T00:03:02;13.85;;;4.43;;
44270;SDS011;29963;44.594;11.368;2023-09-19T00:05:29;10.52;;;4.85;;
44270;SDS011;29963;44.594;11.368;2023-09-19T00:07:59;14.73;;;4.70;;
44270;SDS011;29963;44.594;11.368;2023-09-19T00:10:26;16.83;;;4.78;;
44270;SDS011;29963;44.594;11.368;2023-09-19T00:12:56;13.27;;;4.05;;
44270;SDS011;29963;44.594;11.368;2023-09-19T00:15:24;13.27;;;4.75;;
44270;SDS011;29963;44.594;11.368;2023-09-19T00:17:51;11.40;;;4.95;;
44270;SDS011;29963;44.594;11.368;2023-09-19T00:20:19;11.90;;;3.47;;
44270;SDS011;29963;44.594;11.368;2023-09-19T00:22:48;12.07;;;4.43;;
44270;SDS011;29963;44.594;11.368;2023-09-19T00:25:17;10.98;;;4.07;;
44270;SDS011;29963;44.594;11.368;2023-09-19T00:27:42;13.20;;;4.18;;
44270;SDS011;29963;44.594;11.368;2023-09-19T00:30:10;11.32;;;4.10;;
44270;SDS011;29963;44.594;11.368;2023-09-19T00:32:41;10.43;;;3.88;;
44270;SDS011;29963;44.594;11.368;2023-09-19T00:35:08;9.20;;;3.35;;
44270;SDS011;29963;44.594;11.368;2023-09-19T00:37:37;7.13;;;3.67;;
44270;SDS011;29963;44.594;11.368;2023-09-19T00:40:05;9.40;;;3.55;;
44270;SDS011;29963;44.594;11.368;2023-09-19T00:42:32;8.68;;;3.83;;
44270;SDS011;29963;44.594;11.368;2023-09-19T00:44:58;10.05;;;4.70;;
44270;SDS011;29963;44.594;11.368;2023-09-19T00:47:28;10.85;;;4.47;;
44270;SDS011;29963;44.594;11.368;2023-09-19T00:49:54;9.80;;;4.18;;
44270;SDS011;29963;44.594;11.368;2023-09-19T00:52:21;15.10;;;3.80;;
44270;SDS011;29963;44.594;11.368;2023-09-19T00:54:48;7.25;;;4.25;;
44270;SDS011;29963;44.594;11.368;2023-09-19T00:57:15;19.88;;;4.28;;
44270;SDS011;29963;44.594;11.368;2023-09-19T00:59:44;11.98;;;4.63;;
44270;SDS011;29963;44.594;11.368;2023-09-19T01:02:13;13.65;;;4.35;;
44270;SDS011;29963;44.594;11.368;2023-09-19T01:04:40;12.38;;;4.68;;
44270;SDS011;29963;44.594;11.368;2023-09-19T01:07:06;15.77;;;4.75;;
44270;SDS011;29963;44.594;11.368;2023-09-19T01:09:33;16.90;;;4.80;;
44270;SDS011;29963;44.594;11.368;2023-09-19T01:12:01;13.25;;;3.97;;
44270;SDS011;29963;44.594;11.368;2023-09-19T01:14:44;17.88;;;5.13;;
44270;SDS011;29963;44.594;11.368;2023-09-19T01:17:57;11.48;;;4.90;;
44270;SDS011;29963;44.594;11.368;2023-09-19T01:28:43;11.40;;;3.55;;
44270;SDS011;29963;44.594;11.368;2023-09-19T01:31:19;12.60;;;4.22;;
44270;SDS011;29963;44.594;11.368;2023-09-19T01:33:53;16.13;;;6.00;;
44270;SDS011;29963;44.594;11.368;2023-09-19T01:36:24;16.67;;;5.25;;
44270;SDS011;29963;44.594;11.368;2023-09-19T01:39:10;10.63;;;5.07;;
44270;SDS011;29963;44.594;11.368;2023-09-19T01:41:44;14.65;;;4.32;;
44270;SDS011;29963;44.594;11.368;2023-09-19T01:44:25;16.38;;;5.22;;
44270;SDS011;29963;44.594;11.368;2023-09-19T01:47:02;14.20;;;4.50;;
44270;SDS011;29963;44.594;11.368;2023-09-19T01:49:37;15.43;;;4.47;;
44270;SDS011;29963;44.594;11.368;2023-09-19T01:52:20;16.02;;;4.95;;
44270;SDS011;29963;44.594;11.368;2023-09-19T01:54:50;17.17;;;5.18;;
44270;SDS011;29963;44.594;11.368;2023-09-19T01:59:59;9.70;;;4.13;;
44270;SDS011;29963;44.594;11.368;2023-09-19T02:02:40;11.02;;;4.68;;
44270;SDS011;29963;44.594;11.368;2023-09-19T02:05:09;20.88;;;5.45;;
44270;SDS011;29963;44.594;11.368;2023-09-19T02:07:36;16.50;;;4.88;;
44270;SDS011;29963;44.594;11.368;2023-09-19T02:10:06;14.63;;;4.75;;
44270;SDS011;29963;44.594;11.368;2023-09-19T02:12:35;11.68;;;4.72;;
44270;SDS011;29963;44.594;11.368;2023-09-19T02:15:01;14.95;;;5.15;;
44270;SDS011;29963;44.594;11.368;2023-09-19T02:17:26;9.85;;;4.50;;
44270;SDS011;29963;44.594;11.368;2023-09-19T02:19:55;12.98;;;5.38;;
44270;SDS011;29963;44.594;11.368;2023-09-19T02:22:21;19.10;;;4.95;;
44270;SDS011;29963;44.594;11.368;2023-09-19T02:24:49;11.70;;;4.68;;
44270;SDS011;29963;44.594;11.368;2023-09-19T02:27:16;13.85;;;4.95;;
44270;SDS011;29963;44.594;11.368;2023-09-19T02:29:43;12.85;;;5.38;;
44270;SDS011;29963;44.594;11.368;2023-09-19T02:32:08;15.68;;;5.38;;
44270;SDS011;29963;44.594;11.368;2023-09-19T02:34:35;14.57;;;5.25;;
44270;SDS011;29963;44.594;11.368;2023-09-19T02:37:02;12.95;;;5.65;;
44270;SDS011;29963;44.594;11.368;2023-09-19T02:39:30;15.82;;;4.13;;
44270;SDS011;29963;44.594;11.368;2023-09-19T02:41:56;20.67;;;5.53;;
44270;SDS011;29963;44.594;11.368;2023-09-19T02:44:22;15.30;;;4.93;;
44270;SDS011;29963;44.594;11.368;2023-09-19T02:46:49;11.10;;;4.18;;
44270;SDS011;29963;44.594;11.368;2023-09-19T02:49:15;16.05;;;5.60;;
44270;SDS011;29963;44.594;11.368;2023-09-19T02:51:40;14.70;;;5.80;;
44270;SDS011;29963;44.594;11.368;2023-09-19T02:54:07;19.45;;;5.78;;
44270;SDS011;29963;44.594;11.368;2023-09-19T02:56:32;16.58;;;5.95;;
44270;SDS011;29963;44.594;11.368;2023-09-19T02:58:58;13.40;;;5.18;;
44270;SDS011;29963;44.594;11.368;2023-09-19T03:01:25;16.73;;;5.70;;
44270;SDS011;29963;44.594;11.368;2023-09-19T03:03:53;16.17;;;5.22;;
44270;SDS011;29963;44.594;11.368;2023-09-19T03:06:19;11.52;;;5.30;;
44270;SDS011;29963;44.594;11.368;2023-09-19T03:08:46;16.10;;;5.20;;
44270;SDS011;29963;44.594;11.368;2023-09-19T03:11:14;14.02;;;4.70;;
44270;SDS011;29963;44.594;11.368;2023-09-19T03:13:41;12.07;;;5.47;;
44270;SDS011;29963;44.594;11.368;2023-09-19T03:16:07;13.57;;;5.38;;
44270;SDS011;29963;44.594;11.368;2023-09-19T03:18:33;13.20;;;4.80;;
44270;SDS011;29963;44.594;11.368;2023-09-19T03:21:00;12.27;;;4.90;;
44270;SDS011;29963;44.594;11.368;2023-09-19T03:23:26;16.55;;;5.78;;
44270;SDS011;29963;44.594;11.368;2023-09-19T03:25:52;9.15;;;4.70;;
44270;SDS011;29963;44.594;11.368;2023-09-19T03:28:19;10.35;;;5.68;;
44270;SDS011;29963;44.594;11.368;2023-09-19T03:30:46;25.25;;;5.45;;
44270;SDS011;29963;44.594;11.368;2023-09-19T03:33:22;15.30;;;4.50;;
44270;SDS011;29963;44.594;11.368;2023-09-19T03:35:51;20.27;;;5.95;;
44270;SDS011;29963;44.594;11.368;2023-09-19T03:38:18;16.17;;;6.03;;
44270;SDS011;29963;44.594;11.368;2023-09-19T03:40:44;19.13;;;6.28;;
44270;SDS011;29963;44.594;11.368;2023-09-19T03:43:10;11.93;;;4.82;;
44270;SDS011;29963;44.594;11.368;2023-09-19T03:45:36;16.58;;;5.75;;
44270;SDS011;29963;44.594;11.368;2023-09-19T03:48:07;16.00;;;4.88;;
44270;SDS011;29963;44.594;11.368;2023-09-19T03:50:36;15.35;;;4.90;;
44270;SDS011;29963;44.594;11.368;2023-09-19T03:53:02;13.35;;;5.28;;
44270;SDS011;29963;44.594;11.368;2023-09-19T03:55:28;14.65;;;5.00;;
44270;SDS011;29963;44.594;11.368;2023-09-19T03:57:57;14.02;;;5.72;;
44270;SDS011;29963;44.594;11.368;2023-09-19T04:00:23;17.13;;;5.57;;
44270;SDS011;29963;44.594;11.368;2023-09-19T04:02:51;17.17;;;6.25;;
44270;SDS011;29963;44.594;11.368;2023-09-19T04:05:18;11.68;;;4.43;;
44270;SDS011;29963;44.594;11.368;2023-09-19T04:07:44;10.43;;;5.65;;
44270;SDS011;29963;44.594;11.368;2023-09-19T04:10:10;9.90;;;4.40;;
44270;SDS011;29963;44.594;11.368;2023-09-19T04:12:36;14.23;;;4.88;;
44270;SDS011;29963;44.594;11.368;2023-09-19T04:15:03;17.08;;;4.82;;
44270;SDS011;29963;44.594;11.368;2023-09-19T04:17:32;17.27;;;4.30;;
44270;SDS011;29963;44.594;11.368;2023-09-19T04:19:58;13.25;;;5.05;;
44270;SDS011;29963;44.594;11.368;2023-09-19T04:22:24;15.88;;;4.90;;
44270;SDS011;29963;44.594;11.368;2023-09-19T04:24:50;12.18;;;5.18;;
44270;SDS011;29963;44.594;11.368;2023-09-19T04:27:15;11.05;;;4.88;;
44270;SDS011;29963;44.594;11.368;2023-09-19T04:29:41;12.25;;;5.53;;
44270;SDS011;29963;44.594;11.368;2023-09-19T04:32:07;16.13;;;5.43;;
44270;SDS011;29963;44.594;11.368;2023-09-19T04:34:34;12.32;;;5.18;;
44270;SDS011;29963;44.594;11.368;2023-09-19T04:37:00;12.10;;;5.35;;
44270;SDS011;29963;44.594;11.368;2023-09-19T04:39:27;7.93;;;3.72;;
44270;SDS011;29963;44.594;11.368;2023-09-19T04:41:53;13.27;;;5.90;;
44270;SDS011;29963;44.594;11.368;2023-09-19T04:44:19;19.58;;;6.28;;
44270;SDS011;29963;44.594;11.368;2023-09-19T04:46:46;16.42;;;5.57;;
44270;SDS011;29963;44.594;11.368;2023-09-19T04:49:12;8.27;;;4.50;;
44270;SDS011;29963;44.594;11.368;2023-09-19T04:51:38;12.93;;;4.82;;
44270;SDS011;29963;44.594;11.368;2023-09-19T04:54:05;9.00;;;4.38;;
44270;SDS011;29963;44.594;11.368;2023-09-19T04:56:31;12.98;;;4.47;;
44270;SDS011;29963;44.594;11.368;2023-09-19T04:58:58;12.25;;;4.68;;
44270;SDS011;29963;44.594;11.368;2023-09-19T05:01:25;18.02;;;5.40;;
44270;SDS011;29963;44.594;11.368;2023-09-19T05:03:51;12.90;;;4.78;;
44270;SDS011;29963;44.594;11.368;2023-09-19T05:06:19;16.23;;;5.72;;
44270;SDS011;29963;44.594;11.368;2023-09-19T05:08:46;19.77;;;5.35;;
44270;SDS011;29963;44.594;11.368;2023-09-19T05:11:17;16.88;;;5.65;;
44270;SDS011;29963;44.594;11.368;2023-09-19T05:13:47;17.98;;;5.07;;
44270;SDS011;29963;44.594;11.368;2023-09-19T05:16:12;14.75;;;6.53;;
44270;SDS011;29963;44.594;11.368;2023-09-19T05:18:38;13.55;;;4.88;;
44270;SDS011;29963;44.594;11.368;2023-09-19T05:21:04;28.92;;;7.43;;
44270;SDS011;29963;44.594;11.368;2023-09-19T05:23:30;25.25;;;7.28;;
44270;SDS011;29963;44.594;11.368;2023-09-19T05:25:56;18.17;;;5.53;;
44270;SDS011;29963;44.594;11.368;2023-09-19T05:28:23;11.52;;;5.07;;
44270;SDS011;29963;44.594;11.368;2023-09-19T05:30:49;15.95;;;5.18;;
44270;SDS011;29963;44.594;11.368;2023-09-19T05:33:15;19.83;;;5.93;;
44270;SDS011;29963;44.594;11.368;2023-09-19T05:35:40;22.45;;;6.38;;
44270;SDS011;29963;44.594;11.368;2023-09-19T05:38:07;21.10;;;5.32;;
44270;SDS011;29963;44.594;11.368;2023-09-19T05:40:37;17.38;;;5.82;;
44270;SDS011;29963;44.594;11.368;2023-09-19T05:43:05;11.90;;;5.78;;
44270;SDS011;29963;44.594;11.368;2023-09-19T05:45:31;19.67;;;6.68;;
44270;SDS011;29963;44.594;11.368;2023-09-19T05:48:05;19.23;;;5.20;;
44270;SDS011;29963;44.594;11.368;2023-09-19T05:50:33;22.23;;;6.18;;
44270;SDS011;29963;44.594;11.368;2023-09-19T05:52:59;14.18;;;6.03;;
44270;SDS011;29963;44.594;11.368;2023-09-19T05:55:25;15.73;;;5.65;;
44270;SDS011;29963;44.594;11.368;2023-09-19T05:57:51;21.80;;;6.07;;
44270;SDS011;29963;44.594;11.368;2023-09-19T06:00:21;12.68;;;6.28;;
44270;SDS011;29963;44.594;11.368;2023-09-19T06:02:54;13.85;;;5.40;;
44270;SDS011;29963;44.594;11.368;2023-09-19T06:05:22;16.17;;;6.05;;
44270;SDS011;29963;44.594;11.368;2023-09-19T06:07:48;18.75;;;5.22;;
44270;SDS011;29963;44.594;11.368;2023-09-19T06:10:14;10.75;;;4.75;;
44270;SDS011;29963;44.594;11.368;2023-09-19T06:12:43;19.08;;;6.00;;
44270;SDS011;29963;44.594;11.368;2023-09-19T06:15:09;14.20;;;5.93;;
44270;SDS011;29963;44.594;11.368;2023-09-19T06:17:41;18.85;;;6.32;;
44270;SDS011;29963;44.594;11.368;2023-09-19T06:20:29;24.83;;;7.05;;
44270;SDS011;29963;44.594;11.368;2023-09-19T06:22:56;14.68;;;5.57;;
44270;SDS011;29963;44.594;11.368;2023-09-19T06:25:21;11.30;;;4.55;;
44270;SDS011;29963;44.594;11.368;2023-09-19T06:27:50;14.15;;;4.70;;
44270;SDS011;29963;44.594;11.368;2023-09-19T06:30:19;17.27;;;6.43;;
44270;SDS011;29963;44.594;11.368;2023-09-19T06:32:45;15.55;;;4.97;;
44270;SDS011;29963;44.594;11.368;2023-09-19T06:35:11;15.27;;;4.45;;
44270;SDS011;29963;44.594;11.368;2023-09-19T06:37:38;12.63;;;5.15;;
44270;SDS011;29963;44.594;11.368;2023-09-19T06:40:06;12.93;;;4.85;;
44270;SDS011;29963;44.594;11.368;2023-09-19T06:42:33;17.63;;;6.18;;
44270;SDS011;29963;44.594;11.368;2023-09-19T06:45:02;12.98;;;5.75;;
44270;SDS011;29963;44.594;11.368;2023-09-19T06:47:28;16.02;;;5.35;;
44270;SDS011;29963;44.594;11.368;2023-09-19T06:49:55;18.33;;;4.57;;
44270;SDS011;29963;44.594;11.368;2023-09-19T06:52:20;15.45;;;5.00;;
44270;SDS011;29963;44.594;11.368;2023-09-19T06:54:46;13.48;;;4.82;;
44270;SDS011;29963;44.594;11.368;2023-09-19T06:57:15;11.32;;;4.60;;
44270;SDS011;29963;44.594;11.368;2023-09-19T06:59:41;14.57;;;4.75;;
44270;SDS011;29963;44.594;11.368;2023-09-19T07:02:06;24.13;;;8.65;;
44270;SDS011;29963;44.594;11.368;2023-09-19T07:04:33;17.27;;;4.45;;
44270;SDS011;29963;44.594;11.368;2023-09-19T07:06:59;13.00;;;4.65;;
44270;SDS011;29963;44.594;11.368;2023-09-19T07:09:24;13.35;;;5.03;;
44270;SDS011;29963;44.594;11.368;2023-09-19T07:11:52;10.25;;;4.13;;
44270;SDS011;29963;44.594;11.368;2023-09-19T07:14:18;16.95;;;4.45;;
44270;SDS011;29963;44.594;11.368;2023-09-19T07:16:44;15.13;;;4.10;;
44270;SDS011;29963;44.594;11.368;2023-09-19T07:19:10;11.65;;;4.50;;
44270;SDS011;29963;44.594;11.368;2023-09-19T07:21:36;16.05;;;4.25;;
44270;SDS011;29963;44.594;11.368;2023-09-19T07:24:03;16.77;;;4.55;;
44270;SDS011;29963;44.594;11.368;2023-09-19T07:26:29;20.55;;;4.90;;
44270;SDS011;29963;44.594;11.368;2023-09-19T07:28:56;9.52;;;3.95;;
44270;SDS011;29963;44.594;11.368;2023-09-19T07:31:22;16.25;;;4.85;;
44270;SDS011;29963;44.594;11.368;2023-09-19T07:33:48;10.48;;;4.13;;
44270;SDS011;29963;44.594;11.368;2023-09-19T07:36:14;13.38;;;3.85;;
44270;SDS011;29963;44.594;11.368;2023-09-19T07:38:40;11.43;;;3.58;;
44270;SDS011;29963;44.594;11.368;2023-09-19T07:41:07;14.98;;;4.88;;
44270;SDS011;29963;44.594;11.368;2023-09-19T07:43:34;17.20;;;5.20;;
44270;SDS011;29963;44.594;11.368;2023-09-19T07:46:07;9.85;;;3.47;;
44270;SDS011;29963;44.594;11.368;2023-09-19T07:48:37;14.75;;;4.95;;
44270;SDS011;29963;44.594;11.368;2023-09-19T07:51:06;10.93;;;3.90;;
44270;SDS011;29963;44.594;11.368;2023-09-19T07:53:33;15.02;;;4.40;;
44270;SDS011;29963;44.594;11.368;2023-09-19T07:56:06;18.75;;;3.95;;
44270;SDS011;29963;44.594;11.368;2023-09-19T07:58:32;9.30;;;3.50;;
44270;SDS011;29963;44.594;11.368;2023-09-19T08:01:08;15.48;;;5.18;;
44270;SDS011;29963;44.594;11.368;2023-09-19T08:03:35;15.85;;;4.82;;
44270;SDS011;29963;44.594;11.368;2023-09-19T08:06:05;19.25;;;4.65;;
44270;SDS011;29963;44.594;11.368;2023-09-19T08:08:32;14.68;;;5.03;;
44270;SDS011;29963;44.594;11.368;2023-09-19T08:11:02;16.38;;;5.45;;
44270;SDS011;29963;44.594;11.368;2023-09-19T08:13:36;21.48;;;5.22;;
44270;SDS011;29963;44.594;11.368;2023-09-19T08:16:06;8.77;;;4.68;;
44270;SDS011;29963;44.594;11.368;2023-09-19T08:18:32;13.00;;;4.60;;
44270;SDS011;29963;44.594;11.368;2023-09-19T08:20:58;13.57;;;5.55;;
44270;SDS011;29963;44.594;11.368;2023-09-19T08:23:25;13.18;;;5.40;;
44270;SDS011;29963;44.594;11.368;2023-09-19T08:25:55;14.65;;;5.63;;
44270;SDS011;29963;44.594;11.368;2023-09-19T08:28:22;19.45;;;6.32;;
44270;SDS011;29963;44.594;11.368;2023-09-19T08:30:49;11.63;;;5.00;;
44270;SDS011;29963;44.594;11.368;2023-09-19T08:33:16;25.13;;;5.07;;
44270;SDS011;29963;44.594;11.368;2023-09-19T08:35:42;16.90;;;6.07;;
44270;SDS011;29963;44.594;11.368;2023-09-19T08:38:09;14.98;;;4.45;;
44270;SDS011;29963;44.594;11.368;2023-09-19T08:40:37;15.55;;;5.38;;
44270;SDS011;29963;44.594;11.368;2023-09-19T08:43:05;8.77;;;4.65;;
44270;SDS011;29963;44.594;11.368;2023-09-19T08:45:32;16.48;;;5.78;;
44270;SDS011;29963;44.594;11.368;2023-09-19T08:50:31;11.38;;;5.70;;
44270;SDS011;29963;44.594;11.368;2023-09-19T08:53:01;17.00;;;5.43;;
44270;SDS011;29963;44.594;11.368;2023-09-19T08:55:32;14.32;;;5.68;;
44270;SDS011;29963;44.594;11.368;2023-09-19T08:58:00;12.75;;;5.00;;
44270;SDS011;29963;44.594;11.368;2023-09-19T09:00:29;18.30;;;8.80;;
44270;SDS011;29963;44.594;11.368;2023-09-19T09:02:56;22.17;;;7.53;;
44270;SDS011;29963;44.594;11.368;2023-09-19T09:05:23;10.93;;;5.43;;
44270;SDS011;29963;44.594;11.368;2023-09-19T09:07:49;15.38;;;5.95;;
44270;SDS011;29963;44.594;11.368;2023-09-19T09:10:21;17.38;;;6.13;;
44270;SDS011;29963;44.594;11.368;2023-09-19T09:12:51;11.70;;;4.40;;
44270;SDS011;29963;44.594;11.368;2023-09-19T09:15:18;13.43;;;5.88;;
44270;SDS011;29963;44.594;11.368;2023-09-19T09:17:55;11.50;;;4.15;;
44270;SDS011;29963;44.594;11.368;2023-09-19T09:20:22;15.18;;;5.28;;
44270;SDS011;29963;44.594;11.368;2023-09-19T09:22:51;9.43;;;4.78;;
44270;SDS011;29963;44.594;11.368;2023-09-19T09:25:21;9.00;;;4.22;;
44270;SDS011;29963;44.594;11.368;2023-09-19T09:27:59;7.88;;;3.78;;
44270;SDS011;29963;44.594;11.368;2023-09-19T09:30:33;9.30;;;4.50;;
44270;SDS011;29963;44.594;11.368;2023-09-19T09:33:09;11.95;;;4.32;;
44270;SDS011;29963;44.594;11.368;2023-09-19T09:38:26;7.38;;;3.88;;
44270;SDS011;29963;44.594;11.368;2023-09-19T09:40:54;11.52;;;4.15;;
44270;SDS011;29963;44.594;11.368;2023-09-19T09:51:38;12.63;;;5.53;;
44270;SDS011;29963;44.594;11.368;2023-09-19T09:56:55;10.25;;;4.43;;
44270;SDS011;29963;44.594;11.368;2023-09-19T10:04:57;7.13;;;3.80;;
44270;SDS011;29963;44.594;11.368;2023-09-19T10:07:25;16.42;;;5.18;;
44270;SDS011;29963;44.594;11.368;2023-09-19T10:09:58;13.15;;;4.45;;
44270;SDS011;29963;44.594;11.368;2023-09-19T10:12:34;10.35;;;4.38;;
44270;SDS011;29963;44.594;11.368;2023-09-19T10:15:04;14.88;;;5.18;;
44270;SDS011;29963;44.594;11.368;2023-09-19T10:17:33;12.48;;;4.43;;
44270;SDS011;29963;44.594;11.368;2023-09-19T10:20:01;10.15;;;4.53;;
44270;SDS011;29963;44.594;11.368;2023-09-19T10:22:34;9.63;;;3.75;;
44270;SDS011;29963;44.594;11.368;2023-09-19T10:25:02;11.95;;;4.88;;
44270;SDS011;29963;44.594;11.368;2023-09-19T10:27:32;8.68;;;3.53;;
44270;SDS011;29963;44.594;11.368;2023-09-19T10:30:02;12.60;;;4.20;;
44270;SDS011;29963;44.594;11.368;2023-09-19T10:32:32;9.93;;;4.20;;
44270;SDS011;29963;44.594;11.368;2023-09-19T10:35:00;9.25;;;3.50;;
44270;SDS011;29963;44.594;11.368;2023-09-19T10:37:30;9.95;;;4.07;;
44270;SDS011;29963;44.594;11.368;2023-09-19T10:39:58;9.27;;;4.53;;
44270;SDS011;29963;44.594;11.368;2023-09-19T10:42:24;10.48;;;4.70;;
44270;SDS011;29963;44.594;11.368;2023-09-19T10:44:54;12.18;;;5.90;;
44270;SDS011;29963;44.594;11.368;2023-09-19T10:47:25;11.43;;;6.43;;
44270;SDS011;29963;44.594;11.368;2023-09-19T10:49:51;18.20;;;7.55;;
44270;SDS011;29963;44.594;11.368;2023-09-19T10:52:18;17.95;;;8.32;;
44270;SDS011;29963;44.594;11.368;2023-09-19T10:54:49;15.40;;;10.18;;
44270;SDS011;29963;44.594;11.368;2023-09-19T10:57:22;12.90;;;11.60;;
44270;SDS011;29963;44.594;11.368;2023-09-19T11:43:50;9.95;;;4.10;;
44270;SDS011;29963;44.594;11.368;2023-09-19T11:46:28;8.13;;;3.97;;
44270;SDS011;29963;44.594;11.368;2023-09-19T11:49:13;7.68;;;3.83;;
44270;SDS011;29963;44.594;11.368;2023-09-19T11:51:45;8.27;;;4.18;;
44270;SDS011;29963;44.594;11.368;2023-09-19T11:54:13;7.63;;;4.00;;
44270;SDS011;29963;44.594;11.368;2023-09-19T11:56:53;9.88;;;4.57;;
44270;SDS011;29963;44.594;11.368;2023-09-19T11:59:26;8.32;;;3.85;;
44270;SDS011;29963;44.594;11.368;2023-09-19T12:01:55;13.43;;;4.13;;
44270;SDS011;29963;44.594;11.368;2023-09-19T12:04:34;11.05;;;5.13;;
44270;SDS011;29963;44.594;11.368;2023-09-19T12:07:09;8.57;;;4.13;;
44270;SDS011;29963;44.594;11.368;2023-09-19T12:09:50;7.53;;;3.97;;
44270;SDS011;29963;44.594;11.368;2023-09-19T12:12:31;5.20;;;3.63;;
44270;SDS011;29963;44.594;11.368;2023-09-19T12:14:58;11.48;;;4.45;;
44270;SDS011;29963;44.594;11.368;2023-09-19T12:17:24;7.43;;;3.83;;
44270;SDS011;29963;44.594;11.368;2023-09-19T12:20:04;12.48;;;4.43;;
44270;SDS011;29963;44.594;11.368;2023-09-19T12:22:40;7.15;;;3.70;;
44270;SDS011;29963;44.594;11.368;2023-09-19T12:25:09;6.32;;;3.47;;
44270;SDS011;29963;44.594;11.368;2023-09-19T12:27:42;8.18;;;3.47;;
44270;SDS011;29963;44.594;11.368;2023-09-19T12:30:09;9.20;;;3.00;;
44270;SDS011;29963;44.594;11.368;2023-09-19T12:32:39;10.07;;;3.67;;
44270;SDS011;29963;44.594;11.368;2023-09-19T12:35:07;8.15;;;4.05;;
44270;SDS011;29963;44.594;11.368;2023-09-19T12:37:36;5.72;;;3.03;;
44270;SDS011;29963;44.594;11.368;2023-09-19T12:40:05;11.50;;;4.15;;
44270;SDS011;29963;44.594;11.368;2023-09-19T12:42:47;9.65;;;3.63;;
44270;SDS011;29963;44.594;11.368;2023-09-19T12:45:15;5.57;;;3.30;;
44270;SDS011;29963;44.594;11.368;2023-09-19T12:48:43;11.43;;;3.67;;
44270;SDS011;29963;44.594;11.368;2023-09-19T12:53:35;5.70;;;3.17;;
44270;SDS011;29963;44.594;11.368;2023-09-19T12:56:08;8.10;;;3.00;;
44270;SDS011;29963;44.594;11.368;2023-09-19T13:01:38;8.38;;;2.90;;
44270;SDS011;29963;44.594;11.368;2023-09-19T13:09:13;7.32;;;3.80;;
44270;SDS011;29963;44.594;11.368;2023-09-19T13:11:39;9.23;;;4.80;;
44270;SDS011;29963;44.594;11.368;2023-09-19T13:14:17;9.38;;;4.50;;
44270;SDS011;29963;44.594;11.368;2023-09-19T13:19:57;4.75;;;2.92;;
44270;SDS011;29963;44.594;11.368;2023-09-19T13:25:17;12.65;;;4.10;;
44270;SDS011;29963;44.594;11.368;2023-09-19T13:27:44;9.90;;;3.85;;
44270;SDS011;29963;44.594;11.368;2023-09-19T13:30:13;8.40;;;4.05;;
44270;SDS011;29963;44.594;11.368;2023-09-19T13:32:39;10.25;;;3.83;;
44270;SDS011;29963;44.594;11.368;2023-09-19T13:35:06;9.52;;;3.80;;
44270;SDS011;29963;44.594;11.368;2023-09-19T13:37:34;5.20;;;3.50;;
44270;SDS011;29963;44.594;11.368;2023-09-19T13:40:09;11.55;;;3.30;;
44270;SDS011;29963;44.594;11.368;2023-09-19T13:42:39;10.32;;;3.75;;
44270;SDS011;29963;44.594;11.368;2023-09-19T13:45:06;7.35;;;3.70;;
44270;SDS011;29963;44.594;11.368;2023-09-19T13:47:32;7.50;;;4.07;;
44270;SDS011;29963;44.594;11.368;2023-09-19T13:49:59;6.68;;;3.65;;
44270;SDS011;29963;44.594;11.368;2023-09-19T13:52:27;6.45;;;2.90;;
44270;SDS011;29963;44.594;11.368;2023-09-19T13:54:55;9.25;;;3.30;;
44270;SDS011;29963;44.594;11.368;2023-09-19T13:57:24;5.30;;;3.50;;
44270;SDS011;29963;44.594;11.368;2023-09-19T13:59:51;11.15;;;3.88;;
44270;SDS011;29963;44.594;11.368;2023-09-19T14:02:19;5.20;;;3.25;;
44270;SDS011;29963;44.594;11.368;2023-09-19T14:04:56;5.80;;;3.30;;
44270;SDS011;29963;44.594;11.368;2023-09-19T14:07:23;5.75;;;3.25;;
44270;SDS011;29963;44.594;11.368;2023-09-19T14:09:48;7.18;;;3.55;;
44270;SDS011;29963;44.594;11.368;2023-09-19T14:12:14;4.50;;;3.25;;
44270;SDS011;29963;44.594;11.368;2023-09-19T14:14:40;9.07;;;3.67;;
44270;SDS011;29963;44.594;11.368;2023-09-19T14:17:07;8.27;;;3.42;;
44270;SDS011;29963;44.594;11.368;2023-09-19T14:19:34;6.18;;;3.22;;
44270;SDS011;29963;44.594;11.368;2023-09-19T14:22:01;6.68;;;2.92;;
44270;SDS011;29963;44.594;11.368;2023-09-19T14:24:32;7.32;;;3.40;;
44270;SDS011;29963;44.594;11.368;2023-09-19T14:26:58;4.22;;;2.75;;
44270;SDS011;29963;44.594;11.368;2023-09-19T14:29:24;8.40;;;3.90;;
44270;SDS011;29963;44.594;11.368;2023-09-19T14:31:50;5.40;;;3.30;;
44270;SDS011;29963;44.594;11.368;2023-09-19T14:34:17;5.95;;;3.15;;
44270;SDS011;29963;44.594;11.368;2023-09-19T14:36:42;12.65;;;4.20;;
44270;SDS011;29963;44.594;11.368;2023-09-19T14:39:08;9.00;;;3.83;;
44270;SDS011;29963;44.594;11.368;2023-09-19T14:41:34;6.93;;;2.65;;
44270;SDS011;29963;44.594;11.368;2023-09-19T14:44:01;6.32;;;3.47;;
44270;SDS011;29963;44.594;11.368;2023-09-19T14:46:27;8.82;;;3.17;;
44270;SDS011;29963;44.594;11.368;2023-09-19T14:48:53;7.03;;;3.42;;
44270;SDS011;29963;44.594;11.368;2023-09-19T14:51:22;7.90;;;3.63;;
44270;SDS011;29963;44.594;11.368;2023-09-19T14:53:47;11.15;;;3.63;;
44270;SDS011;29963;44.594;11.368;2023-09-19T14:56:14;8.32;;;3.08;;
44270;SDS011;29963;44.594;11.368;2023-09-19T14:58:45;5.38;;;3.03;;
44270;SDS011;29963;44.594;11.368;2023-09-19T15:01:12;7.93;;;3.72;;
44270;SDS011;29963;44.594;11.368;2023-09-19T15:03:41;7.05;;;3.53;;
44270;SDS011;29963;44.594;11.368;2023-09-19T15:06:10;7.25;;;3.42;;
44270;SDS011;29963;44.594;11.368;2023-09-19T15:08:40;6.22;;;3.10;;
44270;SDS011;29963;44.594;11.368;2023-09-19T15:11:10;6.75;;;3.47;;
44270;SDS011;29963;44.594;11.368;2023-09-19T15:13:37;7.32;;;3.38;;
44270;SDS011;29963;44.594;11.368;2023-09-19T15:16:04;12.55;;;3.33;;
44270;SDS011;29963;44.594;11.368;2023-09-19T15:18:34;9.15;;;3.38;;
44270;SDS011;29963;44.594;11.368;2023-09-19T15:21:04;8.52;;;3.13;;
44270;SDS011;29963;44.594;11.368;2023-09-19T15:23:34;10.23;;;3.58;;
44270;SDS011;29963;44.594;11.368;2023-09-19T15:26:02;23.48;;;4.30;;
44270;SDS011;29963;44.594;11.368;2023-09-19T15:28:28;7.22;;;3.15;;
44270;SDS011;29963;44.594;11.368;2023-09-19T15:31:05;7.45;;;3.10;;
44270;SDS011;29963;44.594;11.368;2023-09-19T15:33:33;8.70;;;4.00;;
44270;SDS011;29963;44.594;11.368;2023-09-19T15:36:06;6.38;;;2.67;;
44270;SDS011;29963;44.594;11.368;2023-09-19T15:41:22;5.18;;;3.10;;
44270;SDS011;29963;44.594;11.368;2023-09-19T15:44:00;6.18;;;2.50;;
44270;SDS011;29963;44.594;11.368;2023-09-19T15:46:27;7.72;;;2.95;;
44270;SDS011;29963;44.594;11.368;2023-09-19T15:48:54;6.85;;;3.63;;
44270;SDS011;29963;44.594;11.368;2023-09-19T15:51:25;5.40;;;2.83;;
44270;SDS011;29963;44.594;11.368;2023-09-19T15:53:52;7.43;;;2.78;;
44270;SDS011;29963;44.594;11.368;2023-09-19T15:56:20;5.13;;;3.50;;
44270;SDS011;29963;44.594;11.368;2023-09-19T15:58:47;9.13;;;3.72;;
44270;SDS011;29963;44.594;11.368;2023-09-19T16:01:14;6.10;;;3.33;;
44270;SDS011;29963;44.594;11.368;2023-09-19T16:03:42;5.90;;;3.20;;
44270;SDS011;29963;44.594;11.368;2023-09-19T16:06:10;8.27;;;3.35;;
44270;SDS011;29963;44.594;11.368;2023-09-19T16:08:41;12.80;;;3.38;;
44270;SDS011;29963;44.594;11.368;2023-09-19T16:11:08;8.27;;;3.10;;